sensor_id;sensor_type;location;lat;lon;timestamp;pressure;altitude;pressure_sealevel;temperature;humidity
48527;BME280;34317;51.660;5.824;2023-07-08T00:01:12;101613.50;;;23.17;39.73
48527;BME280;34317;51.660;5.824;2023-07-08T00:03:40;101605.56;;;23.15;39.72
48527;BME280;34317;51.660;5.824;2023-07-08T00:06:13;101601.25;;;23.12;39.86
48527;BME280;34317;51.660;5.824;2023-07-08T00:08:43;101608.66;;;23.10;39.70
48527;BME280;34317;51.660;5.824;2023-07-08T00:11:12;101594.53;;;23.07;39.78
48527;BME280;34317;51.660;5.824;2023-07-08T00:13:39;101591.00;;;23.06;39.88
48527;BME280;34317;51.660;5.824;2023-07-08T00:16:16;101589.50;;;23.02;40.03
48527;BME280;34317;51.660;5.824;2023-07-08T00:18:46;101586.09;;;23.00;39.97
48527;BME280;34317;51.660;5.824;2023-07-08T00:21:16;101593.47;;;22.98;40.17
48527;BME280;34317;51.660;5.824;2023-07-08T00:23:51;101593.72;;;22.95;40.11
48527;BME280;34317;51.660;5.824;2023-07-08T00:26:27;101583.16;;;22.92;40.10
48527;BME280;34317;51.660;5.824;2023-07-08T00:28:56;101585.44;;;22.87;40.06
48527;BME280;34317;51.660;5.824;2023-07-08T00:31:24;101593.66;;;22.85;40.13
48527;BME280;34317;51.660;5.824;2023-07-08T00:33:54;101585.69;;;22.84;40.23
48527;BME280;34317;51.660;5.824;2023-07-08T00:36:26;101576.97;;;22.80;40.28
48527;BME280;34317;51.660;5.824;2023-07-08T00:38:54;101575.41;;;22.78;40.29
48527;BME280;34317;51.660;5.824;2023-07-08T00:41:35;101581.06;;;22.74;40.40
48527;BME280;34317;51.660;5.824;2023-07-08T00:44:04;101569.66;;;22.71;40.36
48527;BME280;34317;51.660;5.824;2023-07-08T00:46:38;101579.88;;;22.67;40.46
48527;BME280;34317;51.660;5.824;2023-07-08T00:52:29;101579.78;;;22.58;40.49
48527;BME280;34317;51.660;5.824;2023-07-08T00:54:59;101584.59;;;22.54;40.65
48527;BME280;34317;51.660;5.824;2023-07-08T00:57:32;101588.53;;;22.50;40.73
48527;BME280;34317;51.660;5.824;2023-07-08T01:00:15;101588.78;;;22.47;40.68
48527;BME280;34317;51.660;5.824;2023-07-08T01:02:48;101583.66;;;22.44;40.80
48527;BME280;34317;51.660;5.824;2023-07-08T01:05:21;101578.38;;;22.42;40.93
48527;BME280;34317;51.660;5.824;2023-07-08T01:07:55;101576.81;;;22.40;41.02
48527;BME280;34317;51.660;5.824;2023-07-08T01:10:29;101573.34;;;22.38;41.14
48527;BME280;34317;51.660;5.824;2023-07-08T01:13:01;101574.47;;;22.35;41.17
48527;BME280;34317;51.660;5.824;2023-07-08T01:15:36;101566.63;;;22.32;41.31
48527;BME280;34317;51.660;5.824;2023-07-08T01:18:08;101572.31;;;22.29;41.45
48527;BME280;34317;51.660;5.824;2023-07-08T01:20:36;101564.53;;;22.24;41.38
48527;BME280;34317;51.660;5.824;2023-07-08T01:23:05;101572.03;;;22.21;41.55
48527;BME280;34317;51.660;5.824;2023-07-08T01:25:33;101557.09;;;22.16;41.76
48527;BME280;34317;51.660;5.824;2023-07-08T01:28:01;101563.72;;;22.12;41.92
48527;BME280;34317;51.660;5.824;2023-07-08T01:30:29;101558.56;;;22.09;42.06
48527;BME280;34317;51.660;5.824;2023-07-08T01:33:02;101570.47;;;22.07;42.17
48527;BME280;34317;51.660;5.824;2023-07-08T01:35:31;101559.81;;;22.05;41.99
48527;BME280;34317;51.660;5.824;2023-07-08T01:38:01;101565.09;;;22.07;42.22
48527;BME280;34317;51.660;5.824;2023-07-08T01:40:33;101568.78;;;22.06;42.31
48527;BME280;34317;51.660;5.824;2023-07-08T01:43:03;101565.09;;;22.07;42.19
48527;BME280;34317;51.660;5.824;2023-07-08T01:45:40;101554.28;;;22.07;42.44
48527;BME280;34317;51.660;5.824;2023-07-08T01:48:18;101563.13;;;22.09;42.16
48527;BME280;34317;51.660;5.824;2023-07-08T01:50:51;101553.16;;;22.09;42.37
48527;BME280;34317;51.660;5.824;2023-07-08T01:53:28;101555.75;;;22.11;42.41
48527;BME280;34317;51.660;5.824;2023-07-08T01:55:58;101542.97;;;22.13;42.25
48527;BME280;34317;51.660;5.824;2023-07-08T01:58:26;101538.31;;;22.15;42.39
48527;BME280;34317;51.660;5.824;2023-07-08T02:00:55;101535.63;;;22.15;42.46
48527;BME280;34317;51.660;5.824;2023-07-08T02:03:23;101532.91;;;22.15;42.51
48527;BME280;34317;51.660;5.824;2023-07-08T02:05:50;101525.69;;;22.15;42.50
48527;BME280;34317;51.660;5.824;2023-07-08T02:08:19;101524.81;;;22.15;42.67
48527;BME280;34317;51.660;5.824;2023-07-08T02:10:50;101530.22;;;22.15;42.72
48527;BME280;34317;51.660;5.824;2023-07-08T02:13:19;101521.41;;;22.13;42.46
48527;BME280;34317;51.660;5.824;2023-07-08T02:15:48;101528.53;;;22.14;42.75
48527;BME280;34317;51.660;5.824;2023-07-08T02:18:16;101529.50;;;22.13;42.77
48527;BME280;34317;51.660;5.824;2023-07-08T02:20:46;101531.34;;;22.12;42.85
48527;BME280;34317;51.660;5.824;2023-07-08T02:23:15;101526.78;;;22.13;42.88
48527;BME280;34317;51.660;5.824;2023-07-08T02:25:50;101528.75;;;22.11;42.72
48527;BME280;34317;51.660;5.824;2023-07-08T02:28:19;101534.44;;;22.08;42.93
48527;BME280;34317;51.660;5.824;2023-07-08T02:30:46;101525.63;;;22.06;42.99
48527;BME280;34317;51.660;5.824;2023-07-08T02:33:14;101527.56;;;22.04;42.85
48527;BME280;34317;51.660;5.824;2023-07-08T02:35:44;101520.72;;;22.00;42.95
48527;BME280;34317;51.660;5.824;2023-07-08T02:38:12;101513.84;;;21.95;42.86
48527;BME280;34317;51.660;5.824;2023-07-08T02:40:41;101512.66;;;21.88;42.98
48527;BME280;34317;51.660;5.824;2023-07-08T02:43:09;101519.41;;;21.83;43.14
48527;BME280;34317;51.660;5.824;2023-07-08T02:45:38;101505.59;;;21.76;43.13
48527;BME280;34317;51.660;5.824;2023-07-08T02:48:05;101509.50;;;21.72;43.19
48527;BME280;34317;51.660;5.824;2023-07-08T02:50:32;101508.75;;;21.70;43.27
48527;BME280;34317;51.660;5.824;2023-07-08T02:52:59;101506.22;;;21.68;43.26
48527;BME280;34317;51.660;5.824;2023-07-08T02:55:26;101506.31;;;21.67;43.28
48527;BME280;34317;51.660;5.824;2023-07-08T02:57:54;101500.22;;;21.65;43.36
48527;BME280;34317;51.660;5.824;2023-07-08T03:00:21;101507.56;;;21.63;43.34
48527;BME280;34317;51.660;5.824;2023-07-08T03:02:48;101520.31;;;21.61;43.32
48527;BME280;34317;51.660;5.824;2023-07-08T03:05:17;101514.31;;;21.57;43.72
48527;BME280;34317;51.660;5.824;2023-07-08T03:07:44;101521.66;;;21.55;43.59
48527;BME280;34317;51.660;5.824;2023-07-08T03:10:12;101508.53;;;21.50;43.72
48527;BME280;34317;51.660;5.824;2023-07-08T03:12:40;101510.75;;;21.45;43.76
48527;BME280;34317;51.660;5.824;2023-07-08T03:15:07;101512.94;;;21.40;43.70
48527;BME280;34317;51.660;5.824;2023-07-08T03:17:34;101515.16;;;21.35;43.73
48527;BME280;34317;51.660;5.824;2023-07-08T03:20:01;101510.97;;;21.31;43.80
48527;BME280;34317;51.660;5.824;2023-07-08T03:22:31;101510.25;;;21.29;43.93
48527;BME280;34317;51.660;5.824;2023-07-08T03:24:59;101513.91;;;21.28;43.88
48527;BME280;34317;51.660;5.824;2023-07-08T03:27:26;101513.19;;;21.26;44.01
48527;BME280;34317;51.660;5.824;2023-07-08T03:29:53;101517.00;;;21.23;44.02
48527;BME280;34317;51.660;5.824;2023-07-08T03:32:21;101518.06;;;21.20;44.10
48527;BME280;34317;51.660;5.824;2023-07-08T03:34:49;101516.38;;;21.19;44.03
48527;BME280;34317;51.660;5.824;2023-07-08T03:37:16;101519.19;;;21.18;44.23
48527;BME280;34317;51.660;5.824;2023-07-08T03:39:43;101528.22;;;21.17;44.10
48527;BME280;34317;51.660;5.824;2023-07-08T03:42:12;101524.69;;;21.16;44.42
48527;BME280;34317;51.660;5.824;2023-07-08T03:44:40;101524.81;;;21.15;44.29
48527;BME280;34317;51.660;5.824;2023-07-08T03:47:08;101522.22;;;21.13;44.34
48527;BME280;34317;51.660;5.824;2023-07-08T03:49:36;101524.19;;;21.11;44.56
48527;BME280;34317;51.660;5.824;2023-07-08T03:52:03;101522.47;;;21.10;44.55
48527;BME280;34317;51.660;5.824;2023-07-08T03:54:30;101529.84;;;21.08;44.59
48527;BME280;34317;51.660;5.824;2023-07-08T03:57:02;101533.50;;;21.07;44.67
48527;BME280;34317;51.660;5.824;2023-07-08T03:59:30;101527.13;;;21.08;44.73
48527;BME280;34317;51.660;5.824;2023-07-08T04:01:59;101535.22;;;21.08;44.71
48527;BME280;34317;51.660;5.824;2023-07-08T04:04:28;101536.91;;;21.09;44.86
48527;BME280;34317;51.660;5.824;2023-07-08T04:06:57;101524.69;;;21.05;44.82
48527;BME280;34317;51.660;5.824;2023-07-08T04:09:24;101530.06;;;21.05;44.92
48527;BME280;34317;51.660;5.824;2023-07-08T04:11:52;101533.75;;;21.04;44.99
48527;BME280;34317;51.660;5.824;2023-07-08T04:14:20;101526.63;;;21.03;44.88
48527;BME280;34317;51.660;5.824;2023-07-08T04:16:53;101521.25;;;21.03;45.14
48527;BME280;34317;51.660;5.824;2023-07-08T04:19:25;101524.94;;;21.02;44.91
48527;BME280;34317;51.660;5.824;2023-07-08T04:21:55;101526.84;;;21.00;45.14
48527;BME280;34317;51.660;5.824;2023-07-08T04:24:22;101533.97;;;21.01;45.13
48527;BME280;34317;51.660;5.824;2023-07-08T04:27:02;101528.59;;;21.01;45.42
48527;BME280;34317;51.660;5.824;2023-07-08T04:29:29;101524.06;;;21.02;45.30
48527;BME280;34317;51.660;5.824;2023-07-08T04:31:57;101526.63;;;21.03;45.47
48527;BME280;34317;51.660;5.824;2023-07-08T04:34:25;101535.44;;;21.05;45.53
48527;BME280;34317;51.660;5.824;2023-07-08T04:36:53;101530.06;;;21.05;45.65
48527;BME280;34317;51.660;5.824;2023-07-08T04:39:20;101535.22;;;21.08;45.77
48527;BME280;34317;51.660;5.824;2023-07-08T04:41:47;101538.66;;;21.10;45.68
48527;BME280;34317;51.660;5.824;2023-07-08T04:44:15;101540.22;;;21.13;45.64
48527;BME280;34317;51.660;5.824;2023-07-08T04:46:53;101531.91;;;21.16;45.75
48527;BME280;34317;51.660;5.824;2023-07-08T04:49:22;101534.50;;;21.17;45.79
48527;BME280;34317;51.660;5.824;2023-07-08T04:51:51;101534.22;;;21.20;45.95
48527;BME280;34317;51.660;5.824;2023-07-08T04:54:21;101538.28;;;21.26;45.92
48527;BME280;34317;51.660;5.824;2023-07-08T04:56:49;101529.84;;;21.31;46.05
48527;BME280;34317;51.660;5.824;2023-07-08T04:59:18;101525.69;;;21.38;46.25
48527;BME280;34317;51.660;5.824;2023-07-08T05:01:46;101524.94;;;21.47;46.35
48527;BME280;34317;51.660;5.824;2023-07-08T05:04:18;101530.59;;;21.55;46.14
48527;BME280;34317;51.660;5.824;2023-07-08T05:06:45;101527.16;;;21.65;46.26
48527;BME280;34317;51.660;5.824;2023-07-08T05:09:14;101517.59;;;21.72;46.22
48527;BME280;34317;51.660;5.824;2023-07-08T05:11:45;101517.81;;;21.80;46.37
48527;BME280;34317;51.660;5.824;2023-07-08T05:14:13;101517.31;;;21.86;45.96
48527;BME280;34317;51.660;5.824;2023-07-08T05:16:45;101532.00;;;21.93;46.13
48527;BME280;34317;51.660;5.824;2023-07-08T05:19:13;101522.44;;;22.01;46.03
48527;BME280;34317;51.660;5.824;2023-07-08T05:21:41;101527.19;;;22.08;46.05
48527;BME280;34317;51.660;5.824;2023-07-08T05:24:11;101515.75;;;22.16;45.96
48527;BME280;34317;51.660;5.824;2023-07-08T05:26:39;101522.34;;;22.23;45.94
48527;BME280;34317;51.660;5.824;2023-07-08T05:29:06;101529.00;;;22.30;46.08
48527;BME280;34317;51.660;5.824;2023-07-08T05:31:33;101531.03;;;22.38;46.05
48527;BME280;34317;51.660;5.824;2023-07-08T05:34:04;101527.69;;;22.46;45.99
48527;BME280;34317;51.660;5.824;2023-07-08T05:36:31;101539.41;;;22.56;46.06
48527;BME280;34317;51.660;5.824;2023-07-08T05:38:58;101525.13;;;22.65;45.98
48527;BME280;34317;51.660;5.824;2023-07-08T05:41:26;101528.78;;;22.76;46.11
48527;BME280;34317;51.660;5.824;2023-07-08T05:43:53;101527.94;;;22.85;46.01
48527;BME280;34317;51.660;5.824;2023-07-08T05:46:20;101520.91;;;22.93;46.01
48527;BME280;34317;51.660;5.824;2023-07-08T05:48:47;101516.47;;;23.04;45.99
48527;BME280;34317;51.660;5.824;2023-07-08T05:51:15;101520.91;;;23.15;45.89
48527;BME280;34317;51.660;5.824;2023-07-08T05:53:43;101524.78;;;23.22;45.65
48527;BME280;34317;51.660;5.824;2023-07-08T05:56:10;101519.72;;;23.28;45.86
48527;BME280;34317;51.660;5.824;2023-07-08T05:58:37;101516.31;;;23.36;45.83
48527;BME280;34317;51.660;5.824;2023-07-08T06:01:04;101522.91;;;23.43;45.38
48527;BME280;34317;51.660;5.824;2023-07-08T06:03:32;101526.03;;;23.48;45.47
48527;BME280;34317;51.660;5.824;2023-07-08T06:05:59;101534.59;;;23.54;45.49
48527;BME280;34317;51.660;5.824;2023-07-08T06:08:28;101532.34;;;23.59;45.35
48527;BME280;34317;51.660;5.824;2023-07-08T06:10:55;101535.47;;;23.64;45.76
48527;BME280;34317;51.660;5.824;2023-07-08T06:13:22;101529.53;;;23.70;45.74
48527;BME280;34317;51.660;5.824;2023-07-08T06:15:50;101526.03;;;23.79;45.51
48527;BME280;34317;51.660;5.824;2023-07-08T06:18:17;101529.59;;;23.89;45.48
48527;BME280;34317;51.660;5.824;2023-07-08T06:20:51;101523.09;;;24.02;45.42
48527;BME280;34317;51.660;5.824;2023-07-08T06:23:18;101527.09;;;24.17;45.12
48527;BME280;34317;51.660;5.824;2023-07-08T06:25:45;101534.75;;;24.32;44.94
48527;BME280;34317;51.660;5.824;2023-07-08T06:28:13;101532.66;;;24.45;44.65
48527;BME280;34317;51.660;5.824;2023-07-08T06:30:40;101534.22;;;24.57;44.15
48527;BME280;34317;51.660;5.824;2023-07-08T06:33:07;101542.22;;;24.68;43.91
48527;BME280;34317;51.660;5.824;2023-07-08T06:35:34;101537.63;;;24.79;44.00
48527;BME280;34317;51.660;5.824;2023-07-08T06:38:01;101539.88;;;24.93;43.93
48527;BME280;34317;51.660;5.824;2023-07-08T06:40:28;101545.84;;;25.06;44.11
48527;BME280;34317;51.660;5.824;2023-07-08T06:42:55;101537.25;;;25.21;43.96
48527;BME280;34317;51.660;5.824;2023-07-08T06:45:30;101539.50;;;25.35;43.87
48527;BME280;34317;51.660;5.824;2023-07-08T06:47:57;101536.28;;;25.50;43.88
48527;BME280;34317;51.660;5.824;2023-07-08T06:50:24;101531.09;;;25.66;43.42
48527;BME280;34317;51.660;5.824;2023-07-08T06:52:52;101528.56;;;25.82;43.59
48527;BME280;34317;51.660;5.824;2023-07-08T06:55:19;101529.44;;;26.01;42.94
48527;BME280;34317;51.660;5.824;2023-07-08T06:57:46;101526.22;;;26.15;42.95
48527;BME280;34317;51.660;5.824;2023-07-08T07:00:14;101516.66;;;26.29;42.76
48527;BME280;34317;51.660;5.824;2023-07-08T07:02:41;101518.00;;;26.43;42.39
48527;BME280;34317;51.660;5.824;2023-07-08T07:05:09;101512.69;;;26.59;42.55
48527;BME280;34317;51.660;5.824;2023-07-08T07:07:36;101511.16;;;26.75;42.11
48527;BME280;34317;51.660;5.824;2023-07-08T07:10:03;101518.38;;;26.92;41.99
48527;BME280;34317;51.660;5.824;2023-07-08T07:12:31;101511.34;;;27.08;41.39
48527;BME280;34317;51.660;5.824;2023-07-08T07:14:58;101522.63;;;27.21;41.91
48527;BME280;34317;51.660;5.824;2023-07-08T07:17:25;101531.22;;;27.34;41.54
48527;BME280;34317;51.660;5.824;2023-07-08T07:19:54;101521.44;;;27.50;40.94
48527;BME280;34317;51.660;5.824;2023-07-08T07:22:21;101519.81;;;27.65;40.47
48527;BME280;34317;51.660;5.824;2023-07-08T07:24:49;101527.00;;;27.83;40.31
48527;BME280;34317;51.660;5.824;2023-07-08T07:27:16;101517.88;;;28.00;40.07
48527;BME280;34317;51.660;5.824;2023-07-08T07:29:48;101514.16;;;28.18;39.86
48527;BME280;34317;51.660;5.824;2023-07-08T07:32:17;101514.16;;;28.34;39.31
48527;BME280;34317;51.660;5.824;2023-07-08T07:34:49;101511.63;;;28.49;39.28
48527;BME280;34317;51.660;5.824;2023-07-08T07:37:18;101517.28;;;28.64;39.17
48527;BME280;34317;51.660;5.824;2023-07-08T07:39:46;101516.06;;;28.75;39.26
48527;BME280;34317;51.660;5.824;2023-07-08T07:42:15;101515.50;;;28.87;38.35
48527;BME280;34317;51.660;5.824;2023-07-08T07:44:44;101510.56;;;28.99;38.43
48527;BME280;34317;51.660;5.824;2023-07-08T07:47:11;101513.09;;;29.09;38.23
48527;BME280;34317;51.660;5.824;2023-07-08T07:49:39;101509.19;;;29.20;38.55
48527;BME280;34317;51.660;5.824;2023-07-08T07:52:06;101515.78;;;29.34;38.08
48527;BME280;34317;51.660;5.824;2023-07-08T07:54:35;101517.78;;;29.48;37.81
48527;BME280;34317;51.660;5.824;2023-07-08T07:57:02;101505.41;;;29.60;37.45
48527;BME280;34317;51.660;5.824;2023-07-08T07:59:30;101511.31;;;29.72;37.63
48527;BME280;34317;51.660;5.824;2023-07-08T08:01:57;101513.50;;;29.85;37.40
48527;BME280;34317;51.660;5.824;2023-07-08T08:04:24;101512.91;;;29.98;37.09
48527;BME280;34317;51.660;5.824;2023-07-08T08:06:51;101514.88;;;30.12;36.76
48527;BME280;34317;51.660;5.824;2023-07-08T08:09:18;101508.78;;;30.25;36.86
48527;BME280;34317;51.660;5.824;2023-07-08T08:11:46;101516.56;;;30.36;36.92
48527;BME280;34317;51.660;5.824;2023-07-08T08:14:13;101509.66;;;30.49;36.92
48527;BME280;34317;51.660;5.824;2023-07-08T08:16:41;101517.41;;;30.60;35.86
48527;BME280;34317;51.660;5.824;2023-07-08T08:19:08;101521.28;;;30.65;35.18
48527;BME280;34317;51.660;5.824;2023-07-08T08:21:35;101525.53;;;30.68;35.66
48527;BME280;34317;51.660;5.824;2023-07-08T08:24:03;101520.53;;;30.72;34.89
48527;BME280;34317;51.660;5.824;2023-07-08T08:26:30;101522.72;;;30.76;34.52
48527;BME280;34317;51.660;5.824;2023-07-08T08:28:57;101524.06;;;30.80;34.72
48527;BME280;34317;51.660;5.824;2023-07-08T08:31:25;101528.78;;;30.86;34.93
48527;BME280;34317;51.660;5.824;2023-07-08T08:33:52;101533.53;;;30.93;34.78
48527;BME280;34317;51.660;5.824;2023-07-08T08:36:20;101540.63;;;31.02;34.60
48527;BME280;34317;51.660;5.824;2023-07-08T08:38:50;101534.19;;;31.10;35.13
48527;BME280;34317;51.660;5.824;2023-07-08T08:41:19;101532.72;;;31.22;34.53
48527;BME280;34317;51.660;5.824;2023-07-08T08:43:48;101535.81;;;31.34;34.26
48527;BME280;34317;51.660;5.824;2023-07-08T08:51:27;101534.31;;;31.46;34.93
48527;BME280;34317;51.660;5.824;2023-07-08T08:53:57;101538.00;;;31.53;34.53
48527;BME280;34317;51.660;5.824;2023-07-08T08:56:39;101536.66;;;31.64;33.97
48527;BME280;34317;51.660;5.824;2023-07-08T09:01:46;101540.66;;;31.83;34.09
48527;BME280;34317;51.660;5.824;2023-07-08T09:04:20;101532.34;;;31.91;33.42
48527;BME280;34317;51.660;5.824;2023-07-08T09:06:51;101535.34;;;31.96;33.37
48527;BME280;34317;51.660;5.824;2023-07-08T09:09:41;101535.09;;;32.06;33.16
48527;BME280;34317;51.660;5.824;2023-07-08T09:12:18;101533.03;;;32.15;33.04
48527;BME280;34317;51.660;5.824;2023-07-08T09:14:50;101531.50;;;32.27;33.01
48527;BME280;34317;51.660;5.824;2023-07-08T09:17:28;101531.63;;;32.40;32.98
48527;BME280;34317;51.660;5.824;2023-07-08T09:22:41;101533.59;;;32.68;32.24
48527;BME280;34317;51.660;5.824;2023-07-08T09:25:31;101531.72;;;32.75;32.04
48527;BME280;34317;51.660;5.824;2023-07-08T09:27:59;101535.78;;;32.80;31.83
48527;BME280;34317;51.660;5.824;2023-07-08T09:30:26;101531.38;;;32.85;32.79
48527;BME280;34317;51.660;5.824;2023-07-08T09:32:56;101527.88;;;32.98;32.16
48527;BME280;34317;51.660;5.824;2023-07-08T09:35:28;101538.13;;;33.11;31.85
48527;BME280;34317;51.660;5.824;2023-07-08T09:37:56;101533.97;;;33.22;31.59
48527;BME280;34317;51.660;5.824;2023-07-08T09:40:32;101530.84;;;33.31;31.13
48527;BME280;34317;51.660;5.824;2023-07-08T09:43:25;101528.16;;;33.45;31.40
48527;BME280;34317;51.660;5.824;2023-07-08T09:45:57;101537.97;;;33.61;32.13
48527;BME280;34317;51.660;5.824;2023-07-08T09:48:27;101540.16;;;33.72;31.37
48527;BME280;34317;51.660;5.824;2023-07-08T09:50:59;101531.94;;;33.85;32.09
48527;BME280;34317;51.660;5.824;2023-07-08T09:53:27;101522.03;;;33.98;31.49
48527;BME280;34317;51.660;5.824;2023-07-08T09:55:58;101527.56;;;34.11;30.66
48527;BME280;34317;51.660;5.824;2023-07-08T09:58:30;101527.56;;;34.11;30.27
48527;BME280;34317;51.660;5.824;2023-07-08T10:01:05;101524.59;;;34.06;30.36
48527;BME280;34317;51.660;5.824;2023-07-08T10:03:36;101520.78;;;34.00;30.27
48527;BME280;34317;51.660;5.824;2023-07-08T10:06:17;101519.28;;;33.98;30.44
48527;BME280;34317;51.660;5.824;2023-07-08T10:08:44;101520.34;;;33.97;30.08
48527;BME280;34317;51.660;5.824;2023-07-08T10:12:17;101525.63;;;33.98;30.57
48527;BME280;34317;51.660;5.824;2023-07-08T10:14:44;101528.41;;;34.05;30.78
48527;BME280;34317;51.660;5.824;2023-07-08T10:17:15;101525.88;;;34.10;30.33
48527;BME280;34317;51.660;5.824;2023-07-08T10:19:43;101525.44;;;34.13;30.37
48527;BME280;34317;51.660;5.824;2023-07-08T10:22:38;101511.94;;;34.18;30.23
48527;BME280;34317;51.660;5.824;2023-07-08T10:25:42;101504.34;;;34.20;30.37
48527;BME280;34317;51.660;5.824;2023-07-08T10:31:32;101508.97;;;34.26;30.51
48527;BME280;34317;51.660;5.824;2023-07-08T10:34:20;101507.72;;;34.36;30.78
48527;BME280;34317;51.660;5.824;2023-07-08T10:36:52;101512.41;;;34.42;30.19
48527;BME280;34317;51.660;5.824;2023-07-08T10:39:53;101517.06;;;34.48;30.74
48527;BME280;34317;51.660;5.824;2023-07-08T10:42:47;101509.66;;;34.55;30.12
48527;BME280;34317;51.660;5.824;2023-07-08T10:50:59;101508.56;;;34.83;30.30
48527;BME280;34317;51.660;5.824;2023-07-08T10:56:18;101513.19;;;35.09;29.58
48527;BME280;34317;51.660;5.824;2023-07-08T11:04:07;101502.09;;;35.42;28.81
48527;BME280;34317;51.660;5.824;2023-07-08T11:06:53;101509.25;;;35.50;29.03
48527;BME280;34317;51.660;5.824;2023-07-08T11:09:27;101510.91;;;35.58;29.30
48527;BME280;34317;51.660;5.824;2023-07-08T11:12:01;101520.63;;;35.67;28.52
48527;BME280;34317;51.660;5.824;2023-07-08T11:15:13;101517.19;;;35.78;28.83
48527;BME280;34317;51.660;5.824;2023-07-08T11:17:51;101507.00;;;35.85;27.92
48527;BME280;34317;51.660;5.824;2023-07-08T11:20:25;101517.13;;;35.92;27.89
48527;BME280;34317;51.660;5.824;2023-07-08T11:23:01;101500.78;;;35.97;27.69
48527;BME280;34317;51.660;5.824;2023-07-08T11:25:31;101508.13;;;36.03;28.33
48527;BME280;34317;51.660;5.824;2023-07-08T11:28:03;101505.56;;;36.08;27.51
48527;BME280;34317;51.660;5.824;2023-07-08T11:30:32;101511.28;;;36.13;26.96
48527;BME280;34317;51.660;5.824;2023-07-08T11:33:04;101501.69;;;36.22;28.35
48527;BME280;34317;51.660;5.824;2023-07-08T11:35:38;101507.09;;;36.36;26.97
48527;BME280;34317;51.660;5.824;2023-07-08T11:38:13;101502.81;;;36.40;26.92
48527;BME280;34317;51.660;5.824;2023-07-08T11:40:58;101498.53;;;36.44;27.17
48527;BME280;34317;51.660;5.824;2023-07-08T11:43:45;101490.88;;;36.46;26.37
48527;BME280;34317;51.660;5.824;2023-07-08T11:46:24;101489.56;;;36.49;27.20
48527;BME280;34317;51.660;5.824;2023-07-08T11:49:14;101498.41;;;36.57;26.87
48527;BME280;34317;51.660;5.824;2023-07-08T11:51:44;101487.09;;;36.66;27.89
48527;BME280;34317;51.660;5.824;2023-07-08T11:54:20;101484.22;;;36.79;26.72
48527;BME280;34317;51.660;5.824;2023-07-08T11:56:58;101488.81;;;36.85;26.96
48527;BME280;34317;51.660;5.824;2023-07-08T11:59:33;101484.53;;;36.89;26.93
48527;BME280;34317;51.660;5.824;2023-07-08T12:02:14;101485.75;;;36.93;26.97
48527;BME280;34317;51.660;5.824;2023-07-08T12:05:02;101484.00;;;36.99;26.55
48527;BME280;34317;51.660;5.824;2023-07-08T12:07:46;101482.22;;;37.05;25.60
48527;BME280;34317;51.660;5.824;2023-07-08T12:12:50;101479.16;;;37.13;25.14
48527;BME280;34317;51.660;5.824;2023-07-08T12:15:21;101484.25;;;37.16;25.94
48527;BME280;34317;51.660;5.824;2023-07-08T12:17:51;101477.78;;;37.22;25.44
48527;BME280;34317;51.660;5.824;2023-07-08T12:20:27;101475.63;;;37.24;24.86
48527;BME280;34317;51.660;5.824;2023-07-08T12:22:55;101473.97;;;37.23;24.91
48527;BME280;34317;51.660;5.824;2023-07-08T12:25:31;101468.44;;;37.23;24.19
48527;BME280;34317;51.660;5.824;2023-07-08T12:27:59;101466.28;;;37.25;24.46
48527;BME280;34317;51.660;5.824;2023-07-08T12:30:28;101465.34;;;37.31;25.23
48527;BME280;34317;51.660;5.824;2023-07-08T12:32:56;101466.25;;;37.44;24.80
48527;BME280;34317;51.660;5.824;2023-07-08T12:35:29;101462.09;;;37.53;23.99
48527;BME280;34317;51.660;5.824;2023-07-08T12:38:00;101457.34;;;37.60;23.93
48527;BME280;34317;51.660;5.824;2023-07-08T12:40:29;101450.06;;;37.66;24.14
48527;BME280;34317;51.660;5.824;2023-07-08T12:42:57;101449.94;;;37.72;23.36
48527;BME280;34317;51.660;5.824;2023-07-08T12:45:29;101444.78;;;37.76;24.71
48527;BME280;34317;51.660;5.824;2023-07-08T12:47:57;101447.69;;;37.81;24.38
48527;BME280;34317;51.660;5.824;2023-07-08T12:50:24;101449.72;;;37.86;23.90
48527;BME280;34317;51.660;5.824;2023-07-08T12:52:51;101447.34;;;37.89;24.28
48527;BME280;34317;51.660;5.824;2023-07-08T12:55:19;101446.63;;;37.94;24.03
48527;BME280;34317;51.660;5.824;2023-07-08T12:57:50;101447.84;;;37.98;24.12
48527;BME280;34317;51.660;5.824;2023-07-08T13:00:25;101438.59;;;38.04;23.50
48527;BME280;34317;51.660;5.824;2023-07-08T13:03:08;101437.06;;;38.08;23.18
48527;BME280;34317;51.660;5.824;2023-07-08T13:05:41;101448.13;;;38.08;22.35
48527;BME280;34317;51.660;5.824;2023-07-08T13:08:17;101439.81;;;38.08;23.28
48527;BME280;34317;51.660;5.824;2023-07-08T13:10:45;101440.44;;;38.10;22.99
48527;BME280;34317;51.660;5.824;2023-07-08T13:13:22;101436.59;;;38.11;22.76
48527;BME280;34317;51.660;5.824;2023-07-08T13:15:50;101438.25;;;38.12;22.44
48527;BME280;34317;51.660;5.824;2023-07-08T13:18:28;101443.31;;;38.15;22.79
48527;BME280;34317;51.660;5.824;2023-07-08T13:20:58;101445.03;;;38.16;22.52
48527;BME280;34317;51.660;5.824;2023-07-08T13:23:27;101446.69;;;38.17;22.93
48527;BME280;34317;51.660;5.824;2023-07-08T13:25:55;101446.69;;;38.17;23.16
48527;BME280;34317;51.660;5.824;2023-07-08T13:28:25;101440.09;;;38.19;22.78
48527;BME280;34317;51.660;5.824;2023-07-08T13:30:55;101442.38;;;38.22;22.17
48527;BME280;34317;51.660;5.824;2023-07-08T13:33:24;101435.25;;;38.26;21.78
48527;BME280;34317;51.660;5.824;2023-07-08T13:35:52;101437.09;;;38.32;21.73
48527;BME280;34317;51.660;5.824;2023-07-08T13:38:25;101442.25;;;38.40;22.30
48527;BME280;34317;51.660;5.824;2023-07-08T13:40:56;101428.66;;;38.50;21.49
48527;BME280;34317;51.660;5.824;2023-07-08T13:43:30;101446.00;;;38.58;22.61